Time;durP1;ratioP1;P1;durP2;ratioP2;P2;SDS_P1;SDS_P2;PMS_P1;PMS_P2;Temp;Humidity;BMP_temperature;BMP_pressure;BME280_temperature;BME280_humidity;BME280_pressure;Samples;Min_cycle;Max_cycle;Signal;HPM_P1;HPM_P2
2021/11/28 00:02:26;;;;;;;8.13;3.58;;;1.60;99.90;;;;;;4866045;29;20049;-64
2021/11/28 00:04:54;;;;;;;6.35;3.30;;;1.60;99.90;;;;;;4865479;29;20049;-65
2021/11/28 00:15:21;;;;;;;7.70;4.00;;;1.50;99.90;;;;;;4891253;29;20060;-63
2021/11/28 00:17:48;;;;;;;5.97;3.83;;;1.50;99.90;;;;;;4890760;29;20783;-63
2021/11/28 00:20:16;;;;;;;5.15;3.22;;;1.50;99.90;;;;;;4891365;29;20060;-63
2021/11/28 00:22:44;;;;;;;6.95;3.83;;;1.50;99.90;;;;;;4887749;29;20121;-62
2021/11/28 00:25:14;;;;;;;7.10;3.30;;;1.60;99.90;;;;;;4892858;29;20053;-68
2021/11/28 00:27:42;;;;;;;5.70;3.75;;;1.60;99.90;;;;;;4889458;29;20056;-63
2021/11/28 00:30:13;;;;;;;4.82;3.58;;;1.60;99.90;;;;;;4892413;29;20059;-65
2021/11/28 00:32:40;;;;;;;5.32;4.72;;;1.60;99.90;;;;;;4882031;29;20136;-66
2021/11/28 00:35:08;;;;;;;5.95;3.35;;;1.50;99.90;;;;;;4878144;29;20049;-63
2021/11/28 00:37:35;;;;;;;4.45;2.92;;;1.50;99.90;;;;;;4876243;29;20104;-63
2021/11/28 00:40:03;;;;;;;4.78;3.30;;;1.60;99.90;;;;;;4873299;29;20041;-63
2021/11/28 00:42:31;;;;;;;3.97;2.80;;;1.60;99.90;;;;;;4876834;29;20132;-63
2021/11/28 00:44:58;;;;;;;4.95;2.97;;;1.50;99.90;;;;;;4875494;29;20064;-62
2021/11/28 00:47:25;;;;;;;8.35;3.05;;;1.60;99.90;;;;;;4871656;29;20060;-62
2021/11/28 00:52:35;;;;;;;5.45;2.50;;;1.50;99.90;;;;;;4845818;29;20137;-64
2021/11/28 00:55:05;;;;;;;3.90;2.58;;;1.50;99.90;;;;;;4854061;29;20101;-64
2021/11/28 00:57:33;;;;;;;3.92;2.53;;;1.50;99.90;;;;;;4872009;29;20106;-64
2021/11/28 01:00:04;;;;;;;5.85;2.88;;;1.50;99.90;;;;;;4857742;29;20550;-64
2021/11/28 01:02:33;;;;;;;3.55;2.88;;;1.50;99.90;;;;;;4868008;29;20056;-63
2021/11/28 01:05:01;;;;;;;3.05;2.05;;;1.50;99.90;;;;;;4867111;29;20592;-65
2021/11/28 01:07:29;;;;;;;4.05;2.75;;;1.50;99.90;;;;;;4866897;29;20109;-62
2021/11/28 01:09:56;;;;;;;4.78;2.35;;;1.50;99.90;;;;;;4857436;29;20053;-67
2021/11/28 01:12:24;;;;;;;6.28;3.13;;;1.50;99.90;;;;;;4855628;29;20116;-62
2021/11/28 01:14:52;;;;;;;5.22;2.13;;;1.40;99.90;;;;;;4856892;29;20507;-62
2021/11/28 01:17:19;;;;;;;3.85;2.72;;;1.40;99.90;;;;;;4858816;29;23528;-62
2021/11/28 01:19:47;;;;;;;4.05;2.80;;;1.40;99.90;;;;;;4855893;29;20045;-62
2021/11/28 01:22:15;;;;;;;3.60;2.42;;;1.40;99.90;;;;;;4861438;29;20109;-62
2021/11/28 01:24:43;;;;;;;4.32;3.45;;;1.40;99.90;;;;;;4850193;29;20049;-62
2021/11/28 01:27:13;;;;;;;;;;;1.40;99.90;;;;;;4858790;29;20045;-65
2021/11/28 01:29:42;;;;;;;5.55;2.70;;;1.40;99.90;;;;;;4878154;29;19923;-64
2021/11/28 01:32:13;;;;;;;4.35;2.97;;;1.40;99.90;;;;;;4876584;29;20107;-62
2021/11/28 01:34:40;;;;;;;4.75;3.53;;;1.40;99.90;;;;;;4877131;29;20539;-63
2021/11/28 01:37:08;;;;;;;4.25;2.60;;;1.40;99.90;;;;;;4880404;29;20077;-62
2021/11/28 01:39:36;;;;;;;3.30;2.67;;;1.40;99.90;;;;;;4862272;29;20121;-62
2021/11/28 01:42:03;;;;;;;9.07;3.45;;;1.40;99.90;;;;;;4863144;29;20065;-63
2021/11/28 01:44:31;;;;;;;4.75;3.08;;;1.40;99.90;;;;;;4872247;29;20052;-63
2021/11/28 01:46:58;;;;;;;4.10;2.97;;;1.30;99.90;;;;;;4874594;29;20129;-63
2021/11/28 01:49:25;;;;;;;5.05;3.13;;;1.40;99.90;;;;;;4875398;29;20075;-64
2021/11/28 01:51:54;;;;;;;6.53;3.55;;;1.30;99.90;;;;;;4875992;29;20512;-62
2021/11/28 01:54:22;;;;;;;7.15;4.07;;;1.30;99.90;;;;;;4867306;29;20496;-62
2021/11/28 01:56:50;;;;;;;5.20;3.67;;;1.40;99.90;;;;;;4877833;29;20064;-63
2021/11/28 01:59:18;;;;;;;5.82;3.13;;;1.40;99.90;;;;;;4890103;29;20105;-62
2021/11/28 02:01:48;;;;;;;5.15;4.00;;;1.40;99.90;;;;;;4871576;29;20601;-63
2021/11/28 02:04:16;;;;;;;5.10;3.28;;;1.40;99.90;;;;;;4869491;29;20049;-61
2021/11/28 02:06:46;;;;;;;5.97;3.67;;;1.40;99.90;;;;;;4877260;29;20586;-62
2021/11/28 02:09:14;;;;;;;5.75;4.35;;;1.30;99.90;;;;;;4864577;29;20057;-63
2021/11/28 02:11:43;;;;;;;9.35;3.92;;;1.30;99.90;;;;;;4866706;29;20048;-63
2021/11/28 02:14:10;;;;;;;6.10;3.30;;;1.30;99.90;;;;;;4874816;29;20052;-62
2021/11/28 02:16:46;;;;;;;7.13;3.65;;;1.40;99.90;;;;;;4872642;29;20141;-62
2021/11/28 02:19:14;;;;;;;7.50;4.63;;;1.40;99.90;;;;;;4884597;29;20721;-63
2021/11/28 02:21:41;;;;;;;6.18;3.97;;;1.40;99.90;;;;;;4866060;29;20052;-62
2021/11/28 02:24:08;;;;;;;5.38;3.10;;;1.40;99.90;;;;;;4875159;29;20061;-62
2021/11/28 02:26:35;;;;;;;4.90;3.88;;;1.40;99.90;;;;;;4874826;29;20049;-62
2021/11/28 02:29:02;;;;;;;4.68;3.67;;;1.40;99.90;;;;;;4873981;29;20214;-62
2021/11/28 02:31:30;;;;;;;4.28;3.35;;;1.40;99.90;;;;;;4876159;29;20180;-62
2021/11/28 02:33:57;;;;;;;8.93;3.90;;;1.40;99.90;;;;;;4872342;29;20057;-62
2021/11/28 02:36:24;;;;;;;5.90;3.88;;;1.40;99.90;;;;;;4875534;29;20061;-62
2021/11/28 02:38:53;;;;;;;4.63;3.72;;;1.40;99.90;;;;;;4875826;29;20045;-63
2021/11/28 02:41:20;;;;;;;4.93;3.55;;;1.30;99.90;;;;;;4868591;29;20045;-62
2021/11/28 02:43:50;;;;;;;5.25;3.53;;;1.30;99.90;;;;;;4873055;29;20072;-61
2021/11/28 02:46:17;;;;;;;6.38;3.50;;;1.30;99.90;;;;;;4880119;29;20616;-62
2021/11/28 02:48:44;;;;;;;7.88;3.35;;;1.30;99.90;;;;;;4878156;29;20495;-62
2021/11/28 02:51:11;;;;;;;4.32;3.35;;;1.30;99.90;;;;;;4869419;29;20478;-62
2021/11/28 02:53:39;;;;;;;6.30;3.40;;;1.30;99.90;;;;;;4873158;29;20724;-63
2021/11/28 02:56:07;;;;;;;6.70;4.00;;;1.30;99.90;;;;;;4872606;29;20063;-62
2021/11/28 02:58:36;;;;;;;7.95;3.70;;;1.30;99.90;;;;;;4881325;29;20041;-62
2021/11/28 03:01:18;;;;;;;4.68;2.97;;;1.30;99.90;;;;;;4867827;29;20057;-62
2021/11/28 03:04:14;;;;;;;5.15;3.60;;;1.30;99.90;;;;;;4870945;29;20109;-63
2021/11/28 03:06:41;;;;;;;5.40;2.90;;;1.30;99.90;;;;;;4886310;29;20118;-63
2021/11/28 03:09:09;;;;;;;4.75;2.90;;;1.30;99.90;;;;;;4871769;29;20147;-68
2021/11/28 03:11:36;;;;;;;4.60;2.58;;;1.30;99.90;;;;;;4876041;29;20072;-63
2021/11/28 03:14:03;;;;;;;3.05;2.28;;;1.30;99.90;;;;;;4874802;29;20053;-64
2021/11/28 03:16:30;;;;;;;3.03;2.28;;;1.30;99.90;;;;;;4875652;29;20072;-68
2021/11/28 03:18:58;;;;;;;4.22;3.05;;;1.30;99.90;;;;;;4884252;29;20520;-63
2021/11/28 03:21:27;;;;;;;4.35;2.60;;;1.30;99.90;;;;;;4874452;29;20060;-65
2021/11/28 03:23:59;;;;;;;2.73;2.53;;;1.30;99.90;;;;;;4868302;29;20049;-64
2021/11/28 03:26:28;;;;;;;2.75;2.50;;;1.30;99.90;;;;;;4858752;29;20106;-63
2021/11/28 03:29:09;;;;;;;2.38;1.65;;;1.30;99.90;;;;;;4874330;29;20428;-67
2021/11/28 03:31:56;;;;;;;3.72;2.25;;;1.30;99.90;;;;;;4876707;29;20522;-63
2021/11/28 03:34:42;;;;;;;2.50;2.30;;;1.30;99.90;;;;;;4869273;29;20092;-63
2021/11/28 03:37:22;;;;;;;;;;;1.30;99.90;;;;;;4876349;29;20052;-62
2021/11/28 03:39:50;;;;;;;2.50;2.10;;;1.30;99.90;;;;;;4871248;29;20455;-62
2021/11/28 03:42:25;;;;;;;3.70;2.70;;;1.30;99.90;;;;;;4871206;29;20049;-63
2021/11/28 03:44:53;;;;;;;3.90;3.00;;;1.30;99.90;;;;;;4876263;29;20045;-63
2021/11/28 03:47:20;;;;;;;3.60;2.30;;;1.20;99.90;;;;;;4874914;29;20499;-62
2021/11/28 03:49:54;;;;;;;2.72;1.90;;;1.20;99.90;;;;;;4876070;29;20049;-63
2021/11/28 03:52:22;;;;;;;3.47;2.45;;;1.20;99.90;;;;;;4867745;29;20069;-63
2021/11/28 03:54:50;;;;;;;4.55;2.58;;;1.20;99.90;;;;;;4874280;29;20068;-63
2021/11/28 03:57:19;;;;;;;4.55;2.88;;;1.20;99.90;;;;;;4873089;29;20069;-64
2021/11/28 03:59:47;;;;;;;3.25;2.67;;;1.20;99.90;;;;;;4874311;29;20492;-63
2021/11/28 04:02:15;;;;;;;3.35;1.98;;;1.20;99.90;;;;;;4870325;29;20068;-63
2021/11/28 04:04:42;;;;;;;2.85;2.00;;;1.20;99.90;;;;;;4864928;29;20056;-65
2021/11/28 04:07:13;;;;;;;3.25;2.03;;;1.20;99.90;;;;;;4869464;29;20061;-62
2021/11/28 04:09:41;;;;;;;4.90;2.60;;;1.20;99.90;;;;;;4875904;29;20064;-64
2021/11/28 04:12:10;;;;;;;3.13;2.20;;;1.20;99.90;;;;;;4872905;29;20045;-63
2021/11/28 04:14:39;;;;;;;4.22;1.80;;;1.20;99.90;;;;;;4876243;29;20112;-63
2021/11/28 04:17:08;;;;;;;1.98;1.65;;;1.20;99.90;;;;;;4873893;29;20057;-62
2021/11/28 04:19:39;;;;;;;2.67;1.60;;;1.20;99.90;;;;;;4878508;29;20041;-67
2021/11/28 04:22:06;;;;;;;4.15;1.70;;;1.20;99.90;;;;;;4883766;29;20178;-62
2021/11/28 04:24:33;;;;;;;2.05;1.83;;;1.20;99.90;;;;;;4872471;29;20140;-63
2021/11/28 04:27:02;;;;;;;2.95;1.42;;;1.20;99.90;;;;;;4874057;29;20060;-63
2021/11/28 04:29:29;;;;;;;1.77;1.42;;;1.20;99.90;;;;;;4892368;29;20075;-62
2021/11/28 04:31:56;;;;;;;3.55;2.72;;;1.20;99.90;;;;;;4876371;29;20052;-64
2021/11/28 04:34:23;;;;;;;2.75;1.35;;;1.30;99.90;;;;;;4874315;29;20143;-62
2021/11/28 04:36:51;;;;;;;2.20;1.40;;;1.20;99.90;;;;;;4881319;29;20064;-66
2021/11/28 04:39:18;;;;;;;5.13;1.08;;;1.20;99.90;;;;;;4876050;29;20121;-62
2021/11/28 04:41:45;;;;;;;2.22;1.40;;;1.20;99.90;;;;;;4872045;29;20040;-63
2021/11/28 04:44:12;;;;;;;2.95;1.33;;;1.20;99.90;;;;;;4876814;29;20092;-62
2021/11/28 04:46:40;;;;;;;2.05;1.30;;;1.20;99.90;;;;;;4874817;29;20192;-62
2021/11/28 04:49:08;;;;;;;1.85;0.98;;;1.20;99.90;;;;;;4872974;29;20140;-62
2021/11/28 04:51:36;;;;;;;1.77;1.10;;;1.20;99.90;;;;;;4875258;29;20055;-61
2021/11/28 04:54:06;;;;;;;1.95;1.10;;;1.20;99.90;;;;;;4888570;29;20154;-63
2021/11/28 04:56:33;;;;;;;1.63;0.98;;;1.20;99.90;;;;;;4875326;29;20045;-65
2021/11/28 04:59:00;;;;;;;2.17;1.33;;;1.10;99.90;;;;;;4874612;29;20053;-65
2021/11/28 05:01:32;;;;;;;1.42;0.80;;;1.10;99.90;;;;;;4874064;29;20052;-64
2021/11/28 05:04:21;;;;;;;0.90;0.63;;;1.10;99.90;;;;;;4874959;29;20049;-61
2021/11/28 05:06:50;;;;;;;1.50;0.70;;;1.10;99.90;;;;;;4874954;29;20045;-64
2021/11/28 05:09:28;;;;;;;1.05;0.90;;;1.10;99.90;;;;;;4874541;29;20420;-66
2021/11/28 05:11:55;;;;;;;1.60;0.95;;;1.10;99.90;;;;;;4870488;29;20052;-67
2021/11/28 05:14:27;;;;;;;0.60;0.52;;;1.10;99.90;;;;;;4880258;29;20076;-63
2021/11/28 05:16:54;;;;;;;2.70;1.08;;;1.10;99.90;;;;;;4860763;29;20046;-64
2021/11/28 05:19:31;;;;;;;1.08;0.70;;;1.00;99.90;;;;;;4883738;29;20057;-67
2021/11/28 05:22:01;;;;;;;0.85;0.68;;;1.00;99.90;;;;;;4876137;29;20105;-67
2021/11/28 05:24:37;;;;;;;1.70;1.05;;;1.00;99.90;;;;;;4872092;29;20056;-63
2021/11/28 05:27:05;;;;;;;1.95;0.88;;;1.00;99.90;;;;;;4883832;29;20041;-68
2021/11/28 05:29:34;;;;;;;1.17;0.60;;;1.00;99.90;;;;;;4875170;29;20191;-64
2021/11/28 05:32:01;;;;;;;2.28;1.00;;;1.00;99.90;;;;;;4874008;29;20064;-64
2021/11/28 05:34:37;;;;;;;1.00;0.75;;;1.00;99.90;;;;;;4876234;29;20048;-62
2021/11/28 05:37:25;;;;;;;1.20;0.65;;;1.00;99.90;;;;;;4854233;29;20049;-68
2021/11/28 05:40:00;;;;;;;1.20;0.98;;;1.00;99.90;;;;;;4876503;29;20053;-65
2021/11/28 05:42:29;;;;;;;1.80;1.38;;;1.00;99.90;;;;;;4888047;29;20044;-63
2021/11/28 05:44:58;;;;;;;0.95;0.45;;;1.00;99.90;;;;;;4868097;29;20059;-63
2021/11/28 05:47:43;;;;;;;1.88;1.02;;;1.00;99.90;;;;;;4873189;29;20060;-63
2021/11/28 05:50:26;;;;;;;1.20;1.00;;;1.00;99.90;;;;;;4871934;29;20085;-62
2021/11/28 05:52:54;;;;;;;1.45;0.90;;;1.00;99.90;;;;;;4876495;29;20060;-63
2021/11/28 05:55:24;;;;;;;1.00;0.80;;;1.00;99.90;;;;;;4884145;29;20076;-63
2021/11/28 05:57:54;;;;;;;1.13;0.68;;;1.10;99.90;;;;;;4877537;29;20079;-63
2021/11/28 06:00:26;;;;;;;1.10;0.70;;;1.00;99.90;;;;;;4876199;29;20110;-63
2021/11/28 06:03:00;;;;;;;1.00;0.90;;;1.10;99.90;;;;;;4876542;29;20117;-66
2021/11/28 06:05:41;;;;;;;0.82;0.60;;;1.00;99.90;;;;;;4876283;29;20568;-63
2021/11/28 06:08:28;;;;;;;0.95;0.68;;;1.10;99.90;;;;;;4862944;29;20071;-62
2021/11/28 06:11:01;;;;;;;0.50;0.40;;;1.00;99.90;;;;;;4892979;29;20173;-69
2021/11/28 06:13:29;;;;;;;0.75;0.38;;;1.10;99.90;;;;;;4875513;29;20048;-62
2021/11/28 06:16:19;;;;;;;0.40;0.25;;;1.00;99.90;;;;;;4851939;29;20041;-66
2021/11/28 06:19:05;;;;;;;0.40;0.40;;;1.10;99.90;;;;;;4877391;29;20064;-63
2021/11/28 06:21:51;;;;;;;0.88;0.88;;;1.00;99.90;;;;;;4876838;29;20063;-66
2021/11/28 06:24:23;;;;;;;0.68;0.20;;;1.10;99.90;;;;;;4884448;29;20065;-64
2021/11/28 06:27:00;;;;;;;0.60;0.35;;;1.10;99.90;;;;;;4880788;29;20056;-66
2021/11/28 06:29:27;;;;;;;1.25;0.70;;;1.10;99.90;;;;;;4867574;29;20487;-67
2021/11/28 06:31:54;;;;;;;1.15;0.65;;;1.10;99.90;;;;;;4885510;29;20049;-65
2021/11/28 06:34:21;;;;;;;1.52;0.80;;;1.10;99.90;;;;;;4871301;29;20109;-64
2021/11/28 06:37:07;;;;;;;2.38;0.73;;;1.00;99.90;;;;;;4872045;29;20096;-63
2021/11/28 06:40:10;;;;;;;0.50;0.40;;;1.10;99.90;;;;;;4872775;29;20101;-65
2021/11/28 06:42:49;;;;;;;;;;;1.10;99.90;;;;;;4877460;29;20052;-62
2021/11/28 06:45:18;;;;;;;1.27;0.60;;;1.10;99.90;;;;;;4869549;29;20394;-63
2021/11/28 06:47:47;;;;;;;0.70;0.60;;;1.00;99.90;;;;;;4873344;29;20597;-63
2021/11/28 06:50:15;;;;;;;0.65;0.50;;;1.00;99.90;;;;;;4869789;29;20046;-63
2021/11/28 06:52:51;;;;;;;0.80;0.52;;;1.00;99.90;;;;;;4873585;29;20041;-62
2021/11/28 06:55:38;;;;;;;0.73;0.60;;;1.00;99.90;;;;;;4871161;29;20052;-64
2021/11/28 06:58:38;;;;;;;0.75;0.75;;;1.00;99.90;;;;;;4873351;29;20075;-71
2021/11/28 07:01:05;;;;;;;3.15;0.65;;;1.00;99.90;;;;;;4873499;29;20056;-63
2021/11/28 07:03:33;;;;;;;1.05;0.55;;;1.10;99.90;;;;;;4876675;29;20052;-65
2021/11/28 07:06:21;;;;;;;1.15;1.05;;;1.00;99.90;;;;;;4863952;29;20071;-62
2021/11/28 07:08:56;;;;;;;2.13;1.20;;;1.00;99.90;;;;;;4872686;29;20077;-65
2021/11/28 07:11:23;;;;;;;1.35;1.00;;;1.00;99.90;;;;;;4876244;29;20778;-62
2021/11/28 07:13:51;;;;;;;2.47;0.98;;;1.00;99.90;;;;;;4871320;29;20061;-64
2021/11/28 07:16:19;;;;;;;1.10;1.00;;;1.00;99.90;;;;;;4880964;29;20445;-64
2021/11/28 07:18:48;;;;;;;1.15;0.75;;;1.00;99.90;;;;;;4873262;29;20131;-63
2021/11/28 07:21:41;;;;;;;1.83;1.02;;;1.00;99.90;;;;;;4871457;29;20049;-62
2021/11/28 07:24:10;;;;;;;4.32;1.30;;;1.00;99.90;;;;;;4867295;29;20500;-63
2021/11/28 07:26:37;;;;;;;1.30;1.00;;;1.00;99.90;;;;;;4871413;29;20145;-63
2021/11/28 07:29:06;;;;;;;1.80;1.00;;;1.00;99.90;;;;;;4884238;29;20164;-63
2021/11/28 07:31:36;;;;;;;1.20;0.77;;;1.00;99.90;;;;;;4872668;29;20074;-67
2021/11/28 07:34:03;;;;;;;1.48;1.05;;;1.00;99.90;;;;;;4869668;29;20049;-64
2021/11/28 07:36:33;;;;;;;1.92;0.95;;;0.90;99.90;;;;;;4871651;29;20056;-63
2021/11/28 07:39:04;;;;;;;1.85;1.33;;;0.90;99.90;;;;;;4873138;29;20567;-66
2021/11/28 07:41:32;;;;;;;3.17;1.40;;;0.90;99.90;;;;;;4871501;29;20052;-64
2021/11/28 07:44:17;;;;;;;1.00;0.90;;;0.90;99.90;;;;;;4876345;29;20652;-62
2021/11/28 07:47:12;;;;;;;0.88;0.77;;;0.90;99.90;;;;;;4878430;29;20056;-62
2021/11/28 07:50:14;;;;;;;1.25;0.65;;;0.90;99.90;;;;;;4871534;29;20048;-63
2021/11/28 07:52:44;;;;;;;0.90;0.73;;;1.00;99.90;;;;;;4893846;29;20416;-63
2021/11/28 07:55:17;;;;;;;1.02;0.77;;;1.00;99.90;;;;;;4879510;29;20531;-62
2021/11/28 07:58:13;;;;;;;0.95;0.77;;;1.00;99.90;;;;;;4871836;29;20475;-69
2021/11/28 08:01:01;;;;;;;3.55;1.10;;;1.00;99.90;;;;;;4880262;29;20045;-65
2021/11/28 08:03:33;;;;;;;1.13;0.95;;;1.00;99.90;;;;;;4876167;29;20105;-65
2021/11/28 08:06:19;;;;;;;4.93;1.10;;;1.00;99.90;;;;;;4872803;29;20415;-63
2021/11/28 08:08:47;;;;;;;1.30;0.75;;;1.00;99.90;;;;;;4875329;29;20135;-65
2021/11/28 08:11:27;;;;;;;1.50;1.30;;;1.00;99.90;;;;;;4860454;29;20061;-64
2021/11/28 08:13:55;;;;;;;1.70;0.98;;;1.00;99.90;;;;;;4884732;29;20053;-63
2021/11/28 08:16:22;;;;;;;2.40;1.90;;;1.00;99.90;;;;;;4880376;29;20159;-65
2021/11/28 08:18:50;;;;;;;4.68;1.40;;;1.00;99.90;;;;;;4875274;29;20160;-65
2021/11/28 08:21:17;;;;;;;1.17;1.05;;;0.90;99.90;;;;;;4881198;29;20399;-64
2021/11/28 08:23:45;;;;;;;1.58;1.00;;;1.00;99.90;;;;;;4865946;29;20044;-63
2021/11/28 08:26:13;;;;;;;1.02;0.70;;;1.00;99.90;;;;;;4856779;29;20140;-64
2021/11/28 08:28:41;;;;;;;1.98;0.93;;;1.00;99.90;;;;;;4874167;29;20060;-66
2021/11/28 08:31:08;;;;;;;1.48;1.30;;;1.00;99.90;;;;;;4875079;29;20052;-64
2021/11/28 08:33:54;;;;;;;1.90;1.02;;;1.00;99.90;;;;;;4857616;29;20063;-62
2021/11/28 08:36:32;;;;;;;4.25;1.35;;;1.00;99.90;;;;;;4877234;29;20047;-67
2021/11/28 08:39:00;;;;;;;2.00;1.52;;;1.00;99.90;;;;;;4871417;29;20084;-64
2021/11/28 08:41:33;;;;;;;1.45;0.95;;;1.00;99.90;;;;;;4875910;29;20140;-65
2021/11/28 08:44:02;;;;;;;1.57;0.97;;;1.00;99.90;;;;;;4864397;29;20060;-64
2021/11/28 08:46:29;;;;;;;1.85;1.00;;;1.00;99.90;;;;;;4872839;29;20049;-64
2021/11/28 08:48:58;;;;;;;1.65;0.88;;;1.00;99.90;;;;;;4847093;29;20074;-70
2021/11/28 08:51:26;;;;;;;1.67;1.55;;;1.00;99.90;;;;;;4850964;29;20049;-68
2021/11/28 08:53:55;;;;;;;3.30;1.27;;;1.00;99.90;;;;;;4860778;29;20050;-64
2021/11/28 08:56:23;;;;;;;1.65;1.20;;;1.00;99.90;;;;;;4855624;29;20106;-62
2021/11/28 08:58:51;;;;;;;2.20;1.25;;;1.00;99.90;;;;;;4839101;29;20050;-65
2021/11/28 09:01:19;;;;;;;1.83;1.48;;;1.00;99.90;;;;;;4863182;29;20044;-64
2021/11/28 09:03:47;;;;;;;1.50;1.20;;;1.00;99.90;;;;;;4859779;29;21188;-65
2021/11/28 09:06:14;;;;;;;3.10;1.40;;;1.00;99.90;;;;;;4855238;29;20492;-64
2021/11/28 09:08:41;;;;;;;3.17;2.15;;;1.00;99.90;;;;;;4863969;29;20546;-67
2021/11/28 09:11:09;;;;;;;5.40;3.03;;;1.00;99.90;;;;;;4856229;29;20049;-63
2021/11/28 09:13:37;;;;;;;3.30;2.03;;;1.10;99.90;;;;;;4854154;29;20046;-63
2021/11/28 09:16:06;;;;;;;1.98;1.77;;;1.10;99.90;;;;;;4858831;29;20138;-71
2021/11/28 09:18:41;;;;;;;3.20;1.65;;;1.10;99.90;;;;;;4857343;29;20117;-62
2021/11/28 09:21:08;;;;;;;4.43;1.90;;;1.10;99.90;;;;;;4856531;29;20109;-63
2021/11/28 09:26:21;;;;;;;2.60;1.42;;;1.20;99.90;;;;;;4850955;29;20118;-62
2021/11/28 09:28:48;;;;;;;2.53;1.77;;;1.20;99.90;;;;;;4848753;29;20136;-63
2021/11/28 09:31:15;;;;;;;3.00;2.33;;;1.20;99.90;;;;;;4859988;29;20076;-65
2021/11/28 09:33:42;;;;;;;3.55;2.45;;;1.30;99.90;;;;;;4875806;29;20128;-63
2021/11/28 09:36:10;;;;;;;2.75;2.15;;;1.30;99.90;;;;;;4872763;29;20048;-63
2021/11/28 09:38:37;;;;;;;2.22;1.77;;;1.30;99.90;;;;;;4874378;29;20409;-63
2021/11/28 09:41:07;;;;;;;2.40;1.73;;;1.30;99.90;;;;;;4881307;29;20104;-63
2021/11/28 09:43:39;;;;;;;3.50;1.65;;;1.30;99.90;;;;;;4874933;29;20391;-63
2021/11/28 09:46:08;;;;;;;2.20;1.60;;;1.40;99.90;;;;;;4870973;29;20053;-62
2021/11/28 09:48:37;;;;;;;2.83;1.83;;;1.40;99.90;;;;;;4877215;29;20168;-70
2021/11/28 09:51:07;;;;;;;1.90;1.42;;;1.40;99.90;;;;;;4875873;29;20060;-63
2021/11/28 09:53:37;;;;;;;2.72;1.67;;;1.40;99.90;;;;;;4876689;29;20057;-63
2021/11/28 09:56:06;;;;;;;1.88;1.67;;;1.40;99.90;;;;;;4873751;29;20066;-66
2021/11/28 09:58:34;;;;;;;2.10;1.27;;;1.40;99.90;;;;;;4874294;29;20053;-62
2021/11/28 10:01:03;;;;;;;2.70;1.27;;;1.50;99.90;;;;;;4875816;29;21165;-62
2021/11/28 10:03:30;;;;;;;2.15;1.35;;;1.50;99.90;;;;;;4873164;29;20044;-65
2021/11/28 10:05:57;;;;;;;4.93;1.63;;;1.50;99.90;;;;;;4875306;29;20511;-63
2021/11/28 10:08:26;;;;;;;4.60;1.40;;;1.50;99.90;;;;;;4871921;29;20061;-63
2021/11/28 10:11:23;;;;;;;2.40;2.08;;;1.50;99.90;;;;;;4874169;29;20049;-63
2021/11/28 10:13:53;;;;;;;3.40;1.65;;;1.50;99.90;;;;;;4848222;29;20415;-63
2021/11/28 10:16:21;;;;;;;2.97;2.50;;;1.50;99.90;;;;;;4867780;29;20057;-63
2021/11/28 10:18:48;;;;;;;2.83;1.58;;;1.50;99.90;;;;;;4872863;29;20056;-64
2021/11/28 10:21:15;;;;;;;3.25;1.63;;;1.50;99.90;;;;;;4879324;29;20056;-69
2021/11/28 10:24:06;;;;;;;2.05;1.30;;;1.50;99.90;;;;;;4869708;29;20503;-65
2021/11/28 10:26:50;;;;;;;1.92;1.50;;;1.50;99.90;;;;;;4877182;29;20049;-64
2021/11/28 10:29:17;;;;;;;3.60;1.48;;;1.50;99.90;;;;;;4881171;29;20488;-62
2021/11/28 10:31:45;;;;;;;2.20;1.58;;;1.50;99.90;;;;;;4876811;29;20376;-63
2021/11/28 10:34:21;;;;;;;5.28;2.10;;;1.50;99.90;;;;;;4878757;29;20136;-62
2021/11/28 10:36:49;;;;;;;4.03;1.77;;;1.50;99.90;;;;;;4884856;29;20053;-62
2021/11/28 10:39:23;;;;;;;2.08;1.50;;;1.50;99.90;;;;;;4874545;29;20547;-63
2021/11/28 10:41:55;;;;;;;2.13;1.67;;;1.50;99.90;;;;;;4880946;29;20878;-68
2021/11/28 10:44:28;;;;;;;2.03;1.30;;;1.50;99.90;;;;;;4876493;29;20132;-64
2021/11/28 10:47:06;;;;;;;3.40;2.08;;;1.50;99.90;;;;;;4875802;29;20564;-63
2021/11/28 10:49:41;;;;;;;4.00;2.20;;;1.50;99.90;;;;;;4884691;29;20049;-68
2021/11/28 10:52:14;;;;;;;2.85;1.88;;;1.50;99.90;;;;;;4873710;29;20765;-62
2021/11/28 10:54:45;;;;;;;2.60;1.70;;;1.60;99.90;;;;;;4870201;29;20064;-62
2021/11/28 10:57:13;;;;;;;1.67;1.52;;;1.50;99.90;;;;;;4873779;29;20048;-62
2021/11/28 10:59:43;;;;;;;2.65;1.40;;;1.60;99.90;;;;;;4875373;29;20495;-64
2021/11/28 11:02:28;;;;;;;2.00;1.63;;;1.60;99.90;;;;;;4869375;29;20093;-63
2021/11/28 11:04:57;;;;;;;3.35;2.05;;;1.60;99.90;;;;;;4877570;29;20052;-63
2021/11/28 11:07:50;;;;;;;2.22;1.55;;;1.60;99.90;;;;;;4872562;29;20144;-65
2021/11/28 11:10:21;;;;;;;3.92;2.03;;;1.60;99.90;;;;;;4872223;29;20055;-66
2021/11/28 11:12:49;;;;;;;5.15;1.60;;;1.60;99.90;;;;;;4876953;29;20056;-63
2021/11/28 11:15:45;;;;;;;2.85;1.63;;;1.60;99.90;;;;;;4873213;29;20101;-65
2021/11/28 11:18:19;;;;;;;2.50;2.20;;;1.60;99.90;;;;;;4876728;29;20408;-63
2021/11/28 11:21:02;;;;;;;5.07;1.92;;;1.60;99.90;;;;;;4877615;29;20057;-63
2021/11/28 11:23:41;;;;;;;1.42;1.20;;;1.60;99.90;;;;;;4873979;29;20112;-63
2021/11/28 11:26:22;;;;;;;2.50;1.60;;;1.60;99.90;;;;;;4876987;29;20064;-63
2021/11/28 11:29:06;;;;;;;2.05;1.85;;;1.60;99.90;;;;;;4874627;29;20054;-63
2021/11/28 11:31:35;;;;;;;2.53;1.98;;;1.60;99.90;;;;;;4875100;29;20053;-63
2021/11/28 11:34:19;;;;;;;3.22;1.73;;;1.60;99.90;;;;;;4876644;29;20064;-63
2021/11/28 11:36:54;;;;;;;3.10;2.30;;;1.60;99.90;;;;;;4871038;29;20146;-63
2021/11/28 11:39:25;;;;;;;4.18;2.03;;;1.60;99.90;;;;;;4884578;29;20053;-64
2021/11/28 11:41:52;;;;;;;1.98;1.80;;;1.60;99.90;;;;;;4876258;29;20049;-63
2021/11/28 11:44:20;;;;;;;4.88;1.73;;;1.60;99.90;;;;;;4872922;29;20044;-66
2021/11/28 11:46:48;;;;;;;3.28;1.88;;;1.60;99.90;;;;;;4868503;29;20494;-66
2021/11/28 11:49:17;;;;;;;1.98;1.42;;;1.60;99.90;;;;;;4873463;29;20458;-62
2021/11/28 11:51:46;;;;;;;3.30;1.50;;;1.60;99.90;;;;;;4872510;29;20472;-64
2021/11/28 11:54:32;;;;;;;1.85;1.50;;;1.60;99.90;;;;;;4875982;29;20048;-62
2021/11/28 11:57:09;;;;;;;2.25;1.20;;;1.60;99.90;;;;;;4876718;29;20503;-69
2021/11/28 12:00:01;;;;;;;3.30;1.27;;;1.60;99.90;;;;;;4875044;29;20471;-62
2021/11/28 12:02:46;;;;;;;2.30;1.45;;;1.60;99.90;;;;;;4876699;29;20097;-65
2021/11/28 12:05:35;;;;;;;2.15;1.83;;;1.60;99.90;;;;;;4872019;29;20053;-62
2021/11/28 12:08:15;;;;;;;2.47;1.25;;;1.60;99.90;;;;;;4869089;29;20048;-62
2021/11/28 12:10:49;;;;;;;2.67;1.40;;;1.60;99.90;;;;;;4872139;29;20116;-68
2021/11/28 12:13:25;;;;;;;2.92;1.67;;;1.60;99.90;;;;;;4872397;29;20460;-62
2021/11/28 12:16:12;;;;;;;2.55;1.58;;;1.60;99.90;;;;;;4873531;29;20416;-65
2021/11/28 12:18:44;;;;;;;2.45;2.25;;;1.50;99.90;;;;;;4869623;29;20409;-63
2021/11/28 12:21:32;;;;;;;2.08;1.80;;;1.50;99.90;;;;;;4875495;29;20499;-63
2021/11/28 12:24:08;;;;;;;4.75;1.88;;;1.50;99.90;;;;;;4874896;29;20519;-68
2021/11/28 12:26:58;;;;;;;3.63;1.63;;;1.40;99.90;;;;;;4868083;29;20076;-66
2021/11/28 12:29:28;;;;;;;6.07;2.28;;;1.40;99.90;;;;;;4878662;29;20052;-62
2021/11/28 12:32:12;;;;;;;2.13;1.77;;;1.40;99.90;;;;;;4878296;29;20844;-63
2021/11/28 12:34:44;;;;;;;1.42;1.13;;;1.40;99.90;;;;;;4883508;29;20061;-63
2021/11/28 12:37:22;;;;;;;3.75;1.77;;;1.30;99.90;;;;;;4881093;29;20701;-64
2021/11/28 12:39:50;;;;;;;3.85;2.28;;;1.30;99.90;;;;;;4876336;29;20057;-63
2021/11/28 12:42:22;;;;;;;4.22;2.90;;;1.30;99.90;;;;;;4880173;29;20498;-62
2021/11/28 12:44:48;;;;;;;3.42;2.20;;;1.30;99.90;;;;;;4878834;29;20135;-63
2021/11/28 12:47:15;;;;;;;5.25;2.28;;;1.30;99.90;;;;;;4870396;29;20057;-63
2021/11/28 12:49:52;;;;;;;2.22;1.58;;;1.30;99.90;;;;;;4880566;29;20056;-66
2021/11/28 12:52:37;;;;;;;2.28;1.52;;;1.20;99.90;;;;;;4877277;29;20333;-63
2021/11/28 12:55:05;;;;;;;2.00;1.55;;;1.20;99.90;;;;;;4876840;29;20045;-64
2021/11/28 12:57:33;;;;;;;2.30;2.10;;;1.20;99.90;;;;;;4882826;29;20053;-62
2021/11/28 13:00:29;;;;;;;3.05;2.15;;;1.20;99.90;;;;;;4875471;29;20436;-68
2021/11/28 13:03:08;;;;;;;2.22;1.55;;;1.20;99.90;;;;;;4877987;29;20064;-66
2021/11/28 13:05:46;;;;;;;4.63;1.77;;;1.20;99.90;;;;;;4879523;29;20071;-62
2021/11/28 13:08:13;;;;;;;2.03;1.80;;;1.20;99.90;;;;;;4872502;29;20052;-63
2021/11/28 13:10:41;;;;;;;2.63;2.10;;;1.10;99.90;;;;;;4882384;29;20143;-68
2021/11/28 13:13:15;;;;;;;5.53;2.70;;;1.10;99.90;;;;;;4878058;29;20052;-63
2021/11/28 13:16:00;;;;;;;1.88;1.67;;;1.10;99.90;;;;;;4877640;29;20065;-67
2021/11/28 13:18:33;;;;;;;5.70;1.67;;;1.10;99.90;;;;;;4870935;29;20051;-62
2021/11/28 13:21:05;;;;;;;3.10;2.20;;;1.10;99.90;;;;;;4875353;29;20198;-64
2021/11/28 13:23:54;;;;;;;2.67;2.33;;;1.10;99.90;;;;;;4873950;29;20060;-64
2021/11/28 13:26:50;;;;;;;1.70;1.52;;;1.10;99.90;;;;;;4877463;29;20464;-67
2021/11/28 13:29:17;;;;;;;3.75;1.80;;;1.00;99.90;;;;;;4878068;29;20041;-62
2021/11/28 13:31:44;;;;;;;2.20;1.70;;;1.00;99.90;;;;;;4879573;29;20093;-62
2021/11/28 13:34:12;;;;;;;3.03;2.03;;;1.00;99.90;;;;;;4875384;29;20097;-63
2021/11/28 13:36:39;;;;;;;2.13;1.40;;;1.00;99.90;;;;;;4876997;29;20131;-62
2021/11/28 13:39:09;;;;;;;3.55;2.22;;;1.00;99.90;;;;;;4879957;29;20053;-65